sensor_id;sensor_type;location;lat;lon;timestamp;P1;durP1;ratioP1;P2;durP2;ratioP2
17648;SDS011;8943;51.110;-4.158;2022-11-20T00:00:22;1.60;;;1.07;;
17648;SDS011;8943;51.110;-4.158;2022-11-20T00:02:57;2.23;;;0.70;;
17648;SDS011;8943;51.110;-4.158;2022-11-20T00:05:27;2.30;;;0.67;;
17648;SDS011;8943;51.110;-4.158;2022-11-20T00:08:23;1.60;;;0.83;;
17648;SDS011;8943;51.110;-4.158;2022-11-20T00:11:22;1.77;;;0.90;;
17648;SDS011;8943;51.110;-4.158;2022-11-20T00:13:56;0.53;;;0.50;;
17648;SDS011;8943;51.110;-4.158;2022-11-20T00:16:28;1.10;;;0.63;;
17648;SDS011;8943;51.110;-4.158;2022-11-20T00:19:02;1.47;;;0.67;;
17648;SDS011;8943;51.110;-4.158;2022-11-20T00:21:32;1.70;;;0.70;;
17648;SDS011;8943;51.110;-4.158;2022-11-20T00:24:08;1.47;;;0.60;;
17648;SDS011;8943;51.110;-4.158;2022-11-20T00:26:52;2.73;;;0.83;;
17648;SDS011;8943;51.110;-4.158;2022-11-20T00:42:51;2.90;;;0.53;;
17648;SDS011;8943;51.110;-4.158;2022-11-20T00:45:37;6.63;;;3.70;;
17648;SDS011;8943;51.110;-4.158;2022-11-20T00:48:12;42.77;;;6.00;;
17648;SDS011;8943;51.110;-4.158;2022-11-20T00:50:44;4.33;;;2.40;;
17648;SDS011;8943;51.110;-4.158;2022-11-20T00:53:13;2.50;;;1.63;;
17648;SDS011;8943;51.110;-4.158;2022-11-20T00:56:00;1.23;;;0.60;;
17648;SDS011;8943;51.110;-4.158;2022-11-20T00:58:34;0.33;;;0.30;;
17648;SDS011;8943;51.110;-4.158;2022-11-20T01:01:05;2.27;;;0.87;;
17648;SDS011;8943;51.110;-4.158;2022-11-20T01:03:36;0.93;;;0.50;;
17648;SDS011;8943;51.110;-4.158;2022-11-20T01:06:06;1.60;;;0.40;;
17648;SDS011;8943;51.110;-4.158;2022-11-20T01:08:36;0.87;;;0.70;;
17648;SDS011;8943;51.110;-4.158;2022-11-20T01:11:08;2.40;;;0.60;;
17648;SDS011;8943;51.110;-4.158;2022-11-20T01:13:38;0.70;;;0.40;;
17648;SDS011;8943;51.110;-4.158;2022-11-20T01:16:08;1.13;;;0.43;;
17648;SDS011;8943;51.110;-4.158;2022-11-20T01:18:39;4.57;;;1.03;;
17648;SDS011;8943;51.110;-4.158;2022-11-20T01:21:10;0.53;;;0.30;;
17648;SDS011;8943;51.110;-4.158;2022-11-20T01:23:40;0.40;;;0.33;;
17648;SDS011;8943;51.110;-4.158;2022-11-20T01:26:11;0.60;;;0.43;;
17648;SDS011;8943;51.110;-4.158;2022-11-20T01:28:42;0.77;;;0.50;;
17648;SDS011;8943;51.110;-4.158;2022-11-20T01:31:11;3.90;;;0.80;;
17648;SDS011;8943;51.110;-4.158;2022-11-20T01:33:43;2.33;;;0.70;;
17648;SDS011;8943;51.110;-4.158;2022-11-20T01:36:13;3.33;;;0.90;;
17648;SDS011;8943;51.110;-4.158;2022-11-20T01:38:44;2.27;;;0.50;;
17648;SDS011;8943;51.110;-4.158;2022-11-20T01:41:15;3.20;;;0.67;;
17648;SDS011;8943;51.110;-4.158;2022-11-20T01:43:57;7.67;;;1.13;;
17648;SDS011;8943;51.110;-4.158;2022-11-20T01:46:25;18.80;;;2.30;;
17648;SDS011;8943;51.110;-4.158;2022-11-20T01:49:05;10.47;;;2.00;;
17648;SDS011;8943;51.110;-4.158;2022-11-20T01:55:25;15.73;;;2.10;;
17648;SDS011;8943;51.110;-4.158;2022-11-20T02:01:57;15.27;;;2.93;;
17648;SDS011;8943;51.110;-4.158;2022-11-20T02:10:49;11.27;;;3.07;;
17648;SDS011;8943;51.110;-4.158;2022-11-20T02:13:49;15.97;;;2.27;;
17648;SDS011;8943;51.110;-4.158;2022-11-20T02:16:20;18.60;;;3.03;;
17648;SDS011;8943;51.110;-4.158;2022-11-20T02:19:28;15.23;;;2.53;;
17648;SDS011;8943;51.110;-4.158;2022-11-20T02:22:02;21.40;;;3.17;;
17648;SDS011;8943;51.110;-4.158;2022-11-20T02:27:53;14.87;;;2.93;;
17648;SDS011;8943;51.110;-4.158;2022-11-20T02:30:24;9.77;;;2.20;;
17648;SDS011;8943;51.110;-4.158;2022-11-20T02:32:52;13.57;;;2.80;;
17648;SDS011;8943;51.110;-4.158;2022-11-20T02:38:17;13.37;;;1.90;;
17648;SDS011;8943;51.110;-4.158;2022-11-20T02:40:54;16.17;;;2.87;;
17648;SDS011;8943;51.110;-4.158;2022-11-20T02:50:56;18.93;;;3.57;;
17648;SDS011;8943;51.110;-4.158;2022-11-20T02:53:46;19.00;;;2.80;;
17648;SDS011;8943;51.110;-4.158;2022-11-20T02:59:13;19.60;;;3.40;;
17648;SDS011;8943;51.110;-4.158;2022-11-20T03:07:45;17.57;;;3.60;;
17648;SDS011;8943;51.110;-4.158;2022-11-20T03:18:34;16.17;;;3.40;;
17648;SDS011;8943;51.110;-4.158;2022-11-20T03:21:06;18.97;;;3.47;;
17648;SDS011;8943;51.110;-4.158;2022-11-20T03:23:42;18.13;;;4.00;;
17648;SDS011;8943;51.110;-4.158;2022-11-20T03:29:24;22.37;;;3.97;;
17648;SDS011;8943;51.110;-4.158;2022-11-20T03:35:52;17.83;;;3.80;;
17648;SDS011;8943;51.110;-4.158;2022-11-20T03:38:43;19.10;;;4.13;;
17648;SDS011;8943;51.110;-4.158;2022-11-20T03:41:19;21.77;;;3.97;;
17648;SDS011;8943;51.110;-4.158;2022-11-20T03:43:57;18.13;;;4.37;;
17648;SDS011;8943;51.110;-4.158;2022-11-20T03:46:29;21.83;;;4.17;;
17648;SDS011;8943;51.110;-4.158;2022-11-20T03:48:58;31.30;;;3.93;;
17648;SDS011;8943;51.110;-4.158;2022-11-20T03:52:15;17.50;;;4.27;;
17648;SDS011;8943;51.110;-4.158;2022-11-20T03:54:45;18.00;;;4.07;;
17648;SDS011;8943;51.110;-4.158;2022-11-20T04:03:17;20.20;;;5.13;;
17648;SDS011;8943;51.110;-4.158;2022-11-20T04:48:06;22.03;;;4.53;;
17648;SDS011;8943;51.110;-4.158;2022-11-20T04:51:31;21.10;;;3.97;;
17648;SDS011;8943;51.110;-4.158;2022-11-20T04:57:28;19.70;;;4.37;;
17648;SDS011;8943;51.110;-4.158;2022-11-20T05:00:45;26.20;;;5.17;;
17648;SDS011;8943;51.110;-4.158;2022-11-20T05:03:44;21.77;;;3.87;;
17648;SDS011;8943;51.110;-4.158;2022-11-20T05:11:45;16.67;;;3.60;;
17648;SDS011;8943;51.110;-4.158;2022-11-20T05:14:42;19.93;;;4.37;;
17648;SDS011;8943;51.110;-4.158;2022-11-20T05:17:12;17.10;;;3.83;;
17648;SDS011;8943;51.110;-4.158;2022-11-20T05:20:01;20.43;;;3.93;;
17648;SDS011;8943;51.110;-4.158;2022-11-20T05:26:04;20.80;;;4.00;;
17648;SDS011;8943;51.110;-4.158;2022-11-20T05:40:47;22.10;;;4.20;;
17648;SDS011;8943;51.110;-4.158;2022-11-20T05:52:14;16.63;;;2.70;;
17648;SDS011;8943;51.110;-4.158;2022-11-20T06:06:04;14.60;;;3.00;;
17648;SDS011;8943;51.110;-4.158;2022-11-20T06:09:14;19.57;;;4.53;;
17648;SDS011;8943;51.110;-4.158;2022-11-20T06:11:44;20.70;;;3.93;;
17648;SDS011;8943;51.110;-4.158;2022-11-20T06:14:12;15.70;;;3.90;;
17648;SDS011;8943;51.110;-4.158;2022-11-20T06:16:44;15.30;;;2.80;;
17648;SDS011;8943;51.110;-4.158;2022-11-20T06:24:58;8.67;;;2.27;;
17648;SDS011;8943;51.110;-4.158;2022-11-20T06:33:46;19.17;;;3.53;;
17648;SDS011;8943;51.110;-4.158;2022-11-20T06:36:30;18.83;;;3.50;;
17648;SDS011;8943;51.110;-4.158;2022-11-20T06:39:15;15.70;;;3.30;;
17648;SDS011;8943;51.110;-4.158;2022-11-20T06:52:53;14.20;;;2.73;;
17648;SDS011;8943;51.110;-4.158;2022-11-20T06:55:27;11.80;;;2.77;;
17648;SDS011;8943;51.110;-4.158;2022-11-20T07:07:48;16.87;;;2.70;;
17648;SDS011;8943;51.110;-4.158;2022-11-20T07:30:59;16.80;;;2.60;;
17648;SDS011;8943;51.110;-4.158;2022-11-20T07:42:49;19.97;;;3.93;;
17648;SDS011;8943;51.110;-4.158;2022-11-20T07:45:18;17.17;;;3.17;;
17648;SDS011;8943;51.110;-4.158;2022-11-20T07:47:48;10.47;;;2.40;;
17648;SDS011;8943;51.110;-4.158;2022-11-20T07:50:17;16.57;;;3.23;;
17648;SDS011;8943;51.110;-4.158;2022-11-20T07:52:46;18.27;;;3.07;;
17648;SDS011;8943;51.110;-4.158;2022-11-20T07:55:15;14.47;;;2.90;;
17648;SDS011;8943;51.110;-4.158;2022-11-20T07:57:44;16.57;;;3.37;;
17648;SDS011;8943;51.110;-4.158;2022-11-20T08:00:14;19.63;;;3.53;;
17648;SDS011;8943;51.110;-4.158;2022-11-20T08:02:44;15.70;;;2.90;;
17648;SDS011;8943;51.110;-4.158;2022-11-20T08:05:17;16.67;;;3.47;;
17648;SDS011;8943;51.110;-4.158;2022-11-20T08:07:45;15.73;;;3.40;;
17648;SDS011;8943;51.110;-4.158;2022-11-20T08:10:17;18.67;;;3.63;;
17648;SDS011;8943;51.110;-4.158;2022-11-20T08:12:46;16.70;;;3.23;;
17648;SDS011;8943;51.110;-4.158;2022-11-20T08:15:49;17.47;;;2.80;;
17648;SDS011;8943;51.110;-4.158;2022-11-20T08:18:23;11.47;;;1.97;;
17648;SDS011;8943;51.110;-4.158;2022-11-20T08:20:58;12.97;;;2.73;;
17648;SDS011;8943;51.110;-4.158;2022-11-20T08:23:32;3.63;;;1.40;;
17648;SDS011;8943;51.110;-4.158;2022-11-20T08:26:03;11.17;;;2.33;;
17648;SDS011;8943;51.110;-4.158;2022-11-20T08:28:52;13.70;;;2.73;;
17648;SDS011;8943;51.110;-4.158;2022-11-20T08:31:24;16.00;;;2.93;;
17648;SDS011;8943;51.110;-4.158;2022-11-20T08:33:56;11.37;;;2.47;;
17648;SDS011;8943;51.110;-4.158;2022-11-20T08:36:35;12.37;;;2.10;;
17648;SDS011;8943;51.110;-4.158;2022-11-20T08:39:04;12.37;;;4.97;;
17648;SDS011;8943;51.110;-4.158;2022-11-20T08:41:35;8.00;;;2.37;;
17648;SDS011;8943;51.110;-4.158;2022-11-20T08:44:38;16.60;;;4.67;;
17648;SDS011;8943;51.110;-4.158;2022-11-20T08:47:07;7.80;;;1.43;;
17648;SDS011;8943;51.110;-4.158;2022-11-20T08:49:49;13.47;;;2.23;;
17648;SDS011;8943;51.110;-4.158;2022-11-20T08:52:43;7.53;;;1.53;;
17648;SDS011;8943;51.110;-4.158;2022-11-20T08:55:25;13.53;;;2.73;;
17648;SDS011;8943;51.110;-4.158;2022-11-20T08:57:53;10.23;;;3.07;;
17648;SDS011;8943;51.110;-4.158;2022-11-20T09:00:25;13.83;;;2.80;;
17648;SDS011;8943;51.110;-4.158;2022-11-20T09:03:01;17.30;;;3.63;;
17648;SDS011;8943;51.110;-4.158;2022-11-20T09:05:29;14.13;;;3.17;;
17648;SDS011;8943;51.110;-4.158;2022-11-20T09:07:58;15.03;;;3.10;;
17648;SDS011;8943;51.110;-4.158;2022-11-20T09:10:27;10.90;;;2.37;;
17648;SDS011;8943;51.110;-4.158;2022-11-20T09:16:36;8.17;;;2.10;;
17648;SDS011;8943;51.110;-4.158;2022-11-20T09:19:04;9.13;;;2.27;;
17648;SDS011;8943;51.110;-4.158;2022-11-20T09:21:55;10.47;;;2.90;;
17648;SDS011;8943;51.110;-4.158;2022-11-20T09:24:36;11.17;;;2.47;;
17648;SDS011;8943;51.110;-4.158;2022-11-20T09:27:09;14.67;;;2.70;;
17648;SDS011;8943;51.110;-4.158;2022-11-20T09:29:39;10.00;;;2.77;;
17648;SDS011;8943;51.110;-4.158;2022-11-20T09:32:09;12.27;;;2.20;;
17648;SDS011;8943;51.110;-4.158;2022-11-20T09:34:39;7.63;;;1.63;;
17648;SDS011;8943;51.110;-4.158;2022-11-20T09:37:23;14.40;;;2.67;;
17648;SDS011;8943;51.110;-4.158;2022-11-20T09:39:53;18.80;;;2.70;;
17648;SDS011;8943;51.110;-4.158;2022-11-20T09:45:30;12.67;;;2.33;;
17648;SDS011;8943;51.110;-4.158;2022-11-20T09:48:17;7.57;;;2.30;;
17648;SDS011;8943;51.110;-4.158;2022-11-20T09:51:04;7.37;;;1.57;;
17648;SDS011;8943;51.110;-4.158;2022-11-20T09:53:46;10.27;;;2.13;;
17648;SDS011;8943;51.110;-4.158;2022-11-20T09:56:28;14.27;;;2.40;;
17648;SDS011;8943;51.110;-4.158;2022-11-20T09:59:38;22.30;;;2.90;;
17648;SDS011;8943;51.110;-4.158;2022-11-20T10:09:00;15.27;;;3.13;;
17648;SDS011;8943;51.110;-4.158;2022-11-20T10:11:58;8.03;;;2.00;;
17648;SDS011;8943;51.110;-4.158;2022-11-20T10:15:03;11.73;;;2.63;;
17648;SDS011;8943;51.110;-4.158;2022-11-20T10:18:19;15.10;;;2.67;;
17648;SDS011;8943;51.110;-4.158;2022-11-20T10:20:58;9.00;;;2.17;;
17648;SDS011;8943;51.110;-4.158;2022-11-20T10:29:52;7.60;;;1.77;;
17648;SDS011;8943;51.110;-4.158;2022-11-20T10:32:46;13.43;;;2.30;;
17648;SDS011;8943;51.110;-4.158;2022-11-20T10:35:23;6.00;;;1.90;;
17648;SDS011;8943;51.110;-4.158;2022-11-20T10:38:12;13.60;;;2.60;;
17648;SDS011;8943;51.110;-4.158;2022-11-20T10:41:13;9.97;;;2.00;;
17648;SDS011;8943;51.110;-4.158;2022-11-20T10:44:27;16.03;;;2.93;;
17648;SDS011;8943;51.110;-4.158;2022-11-20T10:47:30;12.70;;;2.20;;
17648;SDS011;8943;51.110;-4.158;2022-11-20T10:50:03;14.67;;;3.23;;
17648;SDS011;8943;51.110;-4.158;2022-11-20T10:52:51;12.90;;;2.00;;
17648;SDS011;8943;51.110;-4.158;2022-11-20T10:55:39;17.77;;;2.93;;
17648;SDS011;8943;51.110;-4.158;2022-11-20T10:58:12;2.67;;;0.93;;
17648;SDS011;8943;51.110;-4.158;2022-11-20T11:04:35;6.63;;;1.90;;
17648;SDS011;8943;51.110;-4.158;2022-11-20T11:07:40;5.83;;;0.83;;
17648;SDS011;8943;51.110;-4.158;2022-11-20T11:10:18;11.40;;;1.80;;
17648;SDS011;8943;51.110;-4.158;2022-11-20T11:12:57;10.80;;;1.87;;
17648;SDS011;8943;51.110;-4.158;2022-11-20T11:15:42;20.17;;;3.20;;
17648;SDS011;8943;51.110;-4.158;2022-11-20T11:18:25;7.00;;;2.00;;
17648;SDS011;8943;51.110;-4.158;2022-11-20T11:21:04;13.37;;;2.17;;
17648;SDS011;8943;51.110;-4.158;2022-11-20T11:23:34;6.90;;;1.73;;
17648;SDS011;8943;51.110;-4.158;2022-11-20T11:26:05;11.47;;;2.27;;
17648;SDS011;8943;51.110;-4.158;2022-11-20T11:28:55;9.80;;;2.00;;
17648;SDS011;8943;51.110;-4.158;2022-11-20T11:31:31;11.90;;;2.73;;
17648;SDS011;8943;51.110;-4.158;2022-11-20T11:34:42;7.33;;;1.67;;
17648;SDS011;8943;51.110;-4.158;2022-11-20T11:37:15;12.27;;;2.73;;
17648;SDS011;8943;51.110;-4.158;2022-11-20T11:40:23;9.53;;;1.77;;
17648;SDS011;8943;51.110;-4.158;2022-11-20T11:43:04;7.40;;;1.23;;
17648;SDS011;8943;51.110;-4.158;2022-11-20T11:46:06;9.50;;;1.70;;
17648;SDS011;8943;51.110;-4.158;2022-11-20T11:49:28;13.20;;;1.80;;
17648;SDS011;8943;51.110;-4.158;2022-11-20T11:52:08;7.17;;;1.73;;
17648;SDS011;8943;51.110;-4.158;2022-11-20T11:54:54;5.17;;;0.97;;
17648;SDS011;8943;51.110;-4.158;2022-11-20T12:00:28;10.07;;;1.53;;
17648;SDS011;8943;51.110;-4.158;2022-11-20T12:03:02;12.03;;;1.97;;
17648;SDS011;8943;51.110;-4.158;2022-11-20T12:09:08;8.33;;;1.93;;
17648;SDS011;8943;51.110;-4.158;2022-11-20T12:11:49;13.77;;;1.97;;
17648;SDS011;8943;51.110;-4.158;2022-11-20T12:14:40;6.40;;;1.03;;
17648;SDS011;8943;51.110;-4.158;2022-11-20T12:20:13;11.63;;;1.77;;
17648;SDS011;8943;51.110;-4.158;2022-11-20T12:22:44;7.80;;;1.50;;
17648;SDS011;8943;51.110;-4.158;2022-11-20T12:31:26;11.23;;;1.50;;
17648;SDS011;8943;51.110;-4.158;2022-11-20T12:34:27;9.13;;;1.53;;
17648;SDS011;8943;51.110;-4.158;2022-11-20T12:37:19;8.90;;;1.70;;
17648;SDS011;8943;51.110;-4.158;2022-11-20T12:43:21;9.87;;;1.80;;
17648;SDS011;8943;51.110;-4.158;2022-11-20T12:46:14;12.73;;;2.77;;
17648;SDS011;8943;51.110;-4.158;2022-11-20T12:49:09;9.27;;;2.23;;
17648;SDS011;8943;51.110;-4.158;2022-11-20T12:52:21;6.77;;;1.43;;
17648;SDS011;8943;51.110;-4.158;2022-11-20T12:55:16;10.37;;;1.97;;
17648;SDS011;8943;51.110;-4.158;2022-11-20T12:58:08;13.40;;;2.23;;
17648;SDS011;8943;51.110;-4.158;2022-11-20T13:04:24;12.40;;;1.57;;
17648;SDS011;8943;51.110;-4.158;2022-11-20T13:07:21;7.47;;;1.73;;
17648;SDS011;8943;51.110;-4.158;2022-11-20T13:10:23;6.57;;;1.90;;
17648;SDS011;8943;51.110;-4.158;2022-11-20T13:13:08;12.83;;;1.90;;
17648;SDS011;8943;51.110;-4.158;2022-11-20T13:16:10;10.23;;;2.00;;
17648;SDS011;8943;51.110;-4.158;2022-11-20T13:19:04;11.63;;;2.30;;
17648;SDS011;8943;51.110;-4.158;2022-11-20T13:21:51;11.50;;;2.70;;
17648;SDS011;8943;51.110;-4.158;2022-11-20T13:25:08;9.70;;;2.20;;
17648;SDS011;8943;51.110;-4.158;2022-11-20T13:28:32;14.33;;;2.53;;
17648;SDS011;8943;51.110;-4.158;2022-11-20T13:31:21;11.10;;;2.40;;
17648;SDS011;8943;51.110;-4.158;2022-11-20T13:36:54;11.60;;;2.87;;
17648;SDS011;8943;51.110;-4.158;2022-11-20T13:39:34;8.40;;;1.90;;
17648;SDS011;8943;51.110;-4.158;2022-11-20T13:42:23;13.53;;;3.07;;
17648;SDS011;8943;51.110;-4.158;2022-11-20T13:45:00;11.30;;;3.40;;
17648;SDS011;8943;51.110;-4.158;2022-11-20T13:47:33;8.47;;;2.20;;
17648;SDS011;8943;51.110;-4.158;2022-11-20T13:50:19;10.80;;;3.10;;
17648;SDS011;8943;51.110;-4.158;2022-11-20T13:53:18;9.87;;;1.77;;
17648;SDS011;8943;51.110;-4.158;2022-11-20T13:56:03;10.17;;;2.50;;
17648;SDS011;8943;51.110;-4.158;2022-11-20T14:01:46;9.50;;;2.63;;
17648;SDS011;8943;51.110;-4.158;2022-11-20T14:04:26;5.83;;;2.33;;
17648;SDS011;8943;51.110;-4.158;2022-11-20T14:07:05;4.30;;;1.83;;
17648;SDS011;8943;51.110;-4.158;2022-11-20T14:09:51;5.90;;;1.97;;
17648;SDS011;8943;51.110;-4.158;2022-11-20T14:12:21;10.93;;;2.27;;
17648;SDS011;8943;51.110;-4.158;2022-11-20T14:14:51;16.03;;;3.07;;
17648;SDS011;8943;51.110;-4.158;2022-11-20T14:17:29;15.37;;;3.23;;
17648;SDS011;8943;51.110;-4.158;2022-11-20T14:20:14;11.23;;;2.50;;
17648;SDS011;8943;51.110;-4.158;2022-11-20T14:22:48;18.63;;;3.57;;
17648;SDS011;8943;51.110;-4.158;2022-11-20T14:25:24;7.90;;;1.83;;
17648;SDS011;8943;51.110;-4.158;2022-11-20T14:27:56;7.60;;;1.57;;
17648;SDS011;8943;51.110;-4.158;2022-11-20T14:30:39;7.53;;;2.27;;
17648;SDS011;8943;51.110;-4.158;2022-11-20T14:33:35;11.10;;;1.93;;
17648;SDS011;8943;51.110;-4.158;2022-11-20T14:36:05;8.10;;;1.70;;
17648;SDS011;8943;51.110;-4.158;2022-11-20T14:38:46;17.37;;;3.23;;
17648;SDS011;8943;51.110;-4.158;2022-11-20T14:44:19;12.23;;;2.33;;
17648;SDS011;8943;51.110;-4.158;2022-11-20T14:46:52;13.90;;;2.63;;
17648;SDS011;8943;51.110;-4.158;2022-11-20T14:49:51;20.23;;;3.87;;
17648;SDS011;8943;51.110;-4.158;2022-11-20T14:52:36;14.20;;;3.23;;
17648;SDS011;8943;51.110;-4.158;2022-11-20T14:55:07;7.33;;;1.70;;
17648;SDS011;8943;51.110;-4.158;2022-11-20T14:58:19;19.07;;;4.03;;
17648;SDS011;8943;51.110;-4.158;2022-11-20T15:00:55;15.87;;;2.67;;
17648;SDS011;8943;51.110;-4.158;2022-11-20T15:03:43;13.40;;;3.03;;
17648;SDS011;8943;51.110;-4.158;2022-11-20T15:06:25;10.23;;;2.47;;
17648;SDS011;8943;51.110;-4.158;2022-11-20T15:08:54;11.50;;;2.87;;
17648;SDS011;8943;51.110;-4.158;2022-11-20T15:11:38;17.43;;;3.50;;
17648;SDS011;8943;51.110;-4.158;2022-11-20T15:17:02;16.03;;;3.03;;
17648;SDS011;8943;51.110;-4.158;2022-11-20T15:20:00;13.23;;;3.03;;
17648;SDS011;8943;51.110;-4.158;2022-11-20T15:22:41;12.10;;;2.67;;
17648;SDS011;8943;51.110;-4.158;2022-11-20T15:25:22;10.53;;;2.93;;
17648;SDS011;8943;51.110;-4.158;2022-11-20T15:27:55;17.97;;;3.07;;
17648;SDS011;8943;51.110;-4.158;2022-11-20T15:30:33;7.90;;;1.93;;
17648;SDS011;8943;51.110;-4.158;2022-11-20T15:33:02;20.33;;;3.10;;
17648;SDS011;8943;51.110;-4.158;2022-11-20T15:35:52;20.17;;;4.63;;
17648;SDS011;8943;51.110;-4.158;2022-11-20T15:38:24;14.50;;;2.77;;
17648;SDS011;8943;51.110;-4.158;2022-11-20T15:41:09;11.37;;;2.97;;
17648;SDS011;8943;51.110;-4.158;2022-11-20T15:43:42;10.90;;;2.30;;
17648;SDS011;8943;51.110;-4.158;2022-11-20T15:46:25;12.20;;;3.30;;
17648;SDS011;8943;51.110;-4.158;2022-11-20T15:49:09;13.97;;;2.77;;
17648;SDS011;8943;51.110;-4.158;2022-11-20T15:51:43;13.97;;;3.23;;
17648;SDS011;8943;51.110;-4.158;2022-11-20T15:54:23;18.30;;;3.10;;
17648;SDS011;8943;51.110;-4.158;2022-11-20T15:57:19;14.70;;;3.20;;
17648;SDS011;8943;51.110;-4.158;2022-11-20T15:59:50;12.97;;;2.23;;
17648;SDS011;8943;51.110;-4.158;2022-11-20T16:02:21;14.37;;;2.63;;
17648;SDS011;8943;51.110;-4.158;2022-11-20T16:05:09;15.70;;;3.40;;
17648;SDS011;8943;51.110;-4.158;2022-11-20T16:07:44;26.93;;;4.00;;
17648;SDS011;8943;51.110;-4.158;2022-11-20T16:10:12;13.37;;;3.00;;
17648;SDS011;8943;51.110;-4.158;2022-11-20T16:12:56;19.23;;;3.67;;
17648;SDS011;8943;51.110;-4.158;2022-11-20T16:15:58;13.73;;;3.47;;
17648;SDS011;8943;51.110;-4.158;2022-11-20T16:18:45;13.90;;;2.97;;
17648;SDS011;8943;51.110;-4.158;2022-11-20T16:21:20;17.80;;;4.03;;
17648;SDS011;8943;51.110;-4.158;2022-11-20T16:24:15;16.83;;;3.33;;
17648;SDS011;8943;51.110;-4.158;2022-11-20T16:26:47;17.50;;;3.40;;
17648;SDS011;8943;51.110;-4.158;2022-11-20T16:29:31;23.77;;;3.73;;
17648;SDS011;8943;51.110;-4.158;2022-11-20T16:32:19;16.20;;;4.63;;
17648;SDS011;8943;51.110;-4.158;2022-11-20T16:38:43;19.13;;;3.80;;
17648;SDS011;8943;51.110;-4.158;2022-11-20T16:41:37;23.97;;;5.27;;
17648;SDS011;8943;51.110;-4.158;2022-11-20T16:44:24;19.43;;;4.90;;
17648;SDS011;8943;51.110;-4.158;2022-11-20T16:47:07;19.03;;;6.33;;
17648;SDS011;8943;51.110;-4.158;2022-11-20T16:49:37;18.90;;;3.40;;
17648;SDS011;8943;51.110;-4.158;2022-11-20T16:52:33;19.70;;;3.37;;
17648;SDS011;8943;51.110;-4.158;2022-11-20T16:55:27;23.63;;;4.17;;
17648;SDS011;8943;51.110;-4.158;2022-11-20T16:58:24;16.50;;;4.47;;
17648;SDS011;8943;51.110;-4.158;2022-11-20T17:01:17;21.20;;;6.03;;
17648;SDS011;8943;51.110;-4.158;2022-11-20T17:03:55;19.23;;;3.80;;
17648;SDS011;8943;51.110;-4.158;2022-11-20T17:06:30;23.27;;;4.00;;
17648;SDS011;8943;51.110;-4.158;2022-11-20T17:09:32;14.87;;;3.87;;
17648;SDS011;8943;51.110;-4.158;2022-11-20T17:12:16;18.37;;;4.40;;
17648;SDS011;8943;51.110;-4.158;2022-11-20T17:15:14;16.10;;;4.33;;
17648;SDS011;8943;51.110;-4.158;2022-11-20T17:18:13;13.87;;;3.23;;
17648;SDS011;8943;51.110;-4.158;2022-11-20T17:21:08;17.10;;;3.50;;
17648;SDS011;8943;51.110;-4.158;2022-11-20T17:23:59;19.80;;;4.30;;
17648;SDS011;8943;51.110;-4.158;2022-11-20T17:29:27;14.77;;;2.70;;
17648;SDS011;8943;51.110;-4.158;2022-11-20T17:32:25;17.57;;;4.50;;
17648;SDS011;8943;51.110;-4.158;2022-11-20T17:34:55;15.13;;;2.60;;
17648;SDS011;8943;51.110;-4.158;2022-11-20T17:37:26;18.93;;;4.40;;
17648;SDS011;8943;51.110;-4.158;2022-11-20T17:39:57;20.33;;;4.03;;
17648;SDS011;8943;51.110;-4.158;2022-11-20T17:42:36;15.63;;;2.90;;
17648;SDS011;8943;51.110;-4.158;2022-11-20T17:45:05;15.50;;;3.80;;
17648;SDS011;8943;51.110;-4.158;2022-11-20T17:47:34;7.77;;;2.33;;
17648;SDS011;8943;51.110;-4.158;2022-11-20T17:50:09;23.47;;;4.33;;
17648;SDS011;8943;51.110;-4.158;2022-11-20T17:52:40;15.43;;;4.00;;
17648;SDS011;8943;51.110;-4.158;2022-11-20T17:55:19;14.50;;;3.27;;
17648;SDS011;8943;51.110;-4.158;2022-11-20T17:57:58;13.10;;;3.87;;
17648;SDS011;8943;51.110;-4.158;2022-11-20T18:00:34;19.70;;;3.53;;
17648;SDS011;8943;51.110;-4.158;2022-11-20T18:03:07;12.77;;;3.17;;
17648;SDS011;8943;51.110;-4.158;2022-11-20T18:05:38;11.10;;;3.93;;
17648;SDS011;8943;51.110;-4.158;2022-11-20T18:08:08;16.17;;;4.20;;
17648;SDS011;8943;51.110;-4.158;2022-11-20T18:10:51;18.63;;;3.73;;
17648;SDS011;8943;51.110;-4.158;2022-11-20T18:20:03;19.67;;;4.03;;
17648;SDS011;8943;51.110;-4.158;2022-11-20T18:23:05;19.00;;;3.47;;
17648;SDS011;8943;51.110;-4.158;2022-11-20T18:25:39;19.00;;;4.00;;
17648;SDS011;8943;51.110;-4.158;2022-11-20T18:28:14;14.57;;;3.60;;
17648;SDS011;8943;51.110;-4.158;2022-11-20T18:30:46;14.87;;;3.47;;
17648;SDS011;8943;51.110;-4.158;2022-11-20T18:33:22;8.73;;;2.60;;
17648;SDS011;8943;51.110;-4.158;2022-11-20T18:35:54;11.37;;;2.60;;
17648;SDS011;8943;51.110;-4.158;2022-11-20T18:38:25;12.77;;;3.47;;
17648;SDS011;8943;51.110;-4.158;2022-11-20T18:40:55;13.37;;;3.03;;
17648;SDS011;8943;51.110;-4.158;2022-11-20T18:43:32;15.10;;;3.20;;
17648;SDS011;8943;51.110;-4.158;2022-11-20T18:46:19;22.43;;;6.00;;
17648;SDS011;8943;51.110;-4.158;2022-11-20T18:48:55;22.33;;;5.20;;
17648;SDS011;8943;51.110;-4.158;2022-11-20T18:51:29;19.10;;;3.17;;
17648;SDS011;8943;51.110;-4.158;2022-11-20T18:54:34;15.03;;;4.60;;
17648;SDS011;8943;51.110;-4.158;2022-11-20T18:57:04;20.77;;;3.93;;
17648;SDS011;8943;51.110;-4.158;2022-11-20T18:59:38;12.23;;;3.10;;
17648;SDS011;8943;51.110;-4.158;2022-11-20T19:02:40;18.07;;;4.30;;
17648;SDS011;8943;51.110;-4.158;2022-11-20T19:05:13;23.90;;;4.13;;
17648;SDS011;8943;51.110;-4.158;2022-11-20T19:08:00;16.53;;;3.73;;
17648;SDS011;8943;51.110;-4.158;2022-11-20T19:11:20;17.17;;;3.50;;
17648;SDS011;8943;51.110;-4.158;2022-11-20T19:14:34;14.10;;;3.97;;
17648;SDS011;8943;51.110;-4.158;2022-11-20T19:17:31;16.97;;;2.83;;
17648;SDS011;8943;51.110;-4.158;2022-11-20T19:27:24;17.07;;;3.90;;
17648;SDS011;8943;51.110;-4.158;2022-11-20T19:30:10;23.60;;;6.80;;
17648;SDS011;8943;51.110;-4.158;2022-11-20T19:32:50;31.80;;;15.07;;
17648;SDS011;8943;51.110;-4.158;2022-11-20T19:36:01;21.13;;;4.20;;
17648;SDS011;8943;51.110;-4.158;2022-11-20T19:39:04;15.67;;;3.50;;
17648;SDS011;8943;51.110;-4.158;2022-11-20T19:41:40;20.33;;;3.87;;
17648;SDS011;8943;51.110;-4.158;2022-11-20T19:51:32;20.93;;;5.43;;
17648;SDS011;8943;51.110;-4.158;2022-11-20T19:54:34;18.93;;;4.83;;
17648;SDS011;8943;51.110;-4.158;2022-11-20T19:57:11;20.97;;;6.13;;
17648;SDS011;8943;51.110;-4.158;2022-11-20T20:00:38;13.87;;;4.10;;
17648;SDS011;8943;51.110;-4.158;2022-11-20T20:34:57;14.00;;;3.60;;
17648;SDS011;8943;51.110;-4.158;2022-11-20T20:37:52;16.10;;;3.20;;
17648;SDS011;8943;51.110;-4.158;2022-11-20T20:41:18;10.30;;;2.83;;
17648;SDS011;8943;51.110;-4.158;2022-11-20T20:52:47;16.33;;;3.20;;
17648;SDS011;8943;51.110;-4.158;2022-11-20T20:55:34;12.00;;;3.13;;
17648;SDS011;8943;51.110;-4.158;2022-11-20T21:10:20;46.83;;;21.07;;
17648;SDS011;8943;51.110;-4.158;2022-11-20T21:13:28;24.00;;;7.37;;
17648;SDS011;8943;51.110;-4.158;2022-11-20T21:16:48;16.83;;;3.83;;
17648;SDS011;8943;51.110;-4.158;2022-11-20T21:20:12;16.97;;;3.40;;
17648;SDS011;8943;51.110;-4.158;2022-11-20T21:29:30;29.73;;;4.43;;
17648;SDS011;8943;51.110;-4.158;2022-11-20T21:32:03;20.07;;;3.77;;
17648;SDS011;8943;51.110;-4.158;2022-11-20T21:34:35;22.57;;;5.00;;
17648;SDS011;8943;51.110;-4.158;2022-11-20T21:37:10;25.00;;;4.90;;
17648;SDS011;8943;51.110;-4.158;2022-11-20T21:40:20;20.37;;;5.37;;
17648;SDS011;8943;51.110;-4.158;2022-11-20T21:43:38;20.70;;;6.00;;
17648;SDS011;8943;51.110;-4.158;2022-11-20T21:50:23;20.57;;;5.60;;
17648;SDS011;8943;51.110;-4.158;2022-11-20T22:01:38;23.67;;;5.83;;
17648;SDS011;8943;51.110;-4.158;2022-11-20T22:04:20;22.03;;;8.10;;
17648;SDS011;8943;51.110;-4.158;2022-11-20T22:07:29;26.63;;;7.13;;
17648;SDS011;8943;51.110;-4.158;2022-11-20T22:11:03;24.67;;;11.57;;
17648;SDS011;8943;51.110;-4.158;2022-11-20T22:13:49;30.93;;;14.13;;
17648;SDS011;8943;51.110;-4.158;2022-11-20T22:22:44;20.37;;;4.83;;
17648;SDS011;8943;51.110;-4.158;2022-11-20T22:26:00;18.50;;;4.47;;
17648;SDS011;8943;51.110;-4.158;2022-11-20T22:44:06;13.67;;;3.03;;
17648;SDS011;8943;51.110;-4.158;2022-11-20T22:46:41;19.43;;;3.60;;